Time;durP1;ratioP1;P1;durP2;ratioP2;P2;SDS_P1;SDS_P2;PMS_P1;PMS_P2;Temp;Humidity;BMP_temperature;BMP_pressure;BME280_temperature;BME280_humidity;BME280_pressure;Samples;Min_cycle;Max_cycle;Signal;HPM_P1;HPM_P2
2023/10/14 00:01:10;;;;;;;6.43;2.80;;;;;;;;;;5114349;27;20220;-34
2023/10/14 00:03:41;;;;;;;3.17;2.60;;;;;;;;;;5114213;27;20200;-33
2023/10/14 00:06:08;;;;;;;4.27;2.73;;;;;;;;;;5132840;27;20229;-39
2023/10/14 00:08:39;;;;;;;6.03;2.70;;;;;;;;;;5115802;27;20203;-38
2023/10/14 00:11:07;;;;;;;4.47;3.53;;;;;;;;;;5126538;27;20230;-34
2023/10/14 00:13:41;;;;;;;5.87;3.07;;;;;;;;;;5121808;27;20208;-39
2023/10/14 00:16:21;;;;;;;5.33;2.93;;;;;;;;;;5117435;27;20211;-34
2023/10/14 00:18:49;;;;;;;6.00;3.23;;;;;;;;;;5128956;27;20262;-36
2023/10/14 00:21:16;;;;;;;5.67;4.10;;;;;;;;;;5120868;27;20314;-30
2023/10/14 00:23:43;;;;;;;3.30;2.63;;;;;;;;;;5117232;27;20204;-40
2023/10/14 00:26:16;;;;;;;4.83;3.13;;;;;;;;;;5132734;27;20204;-39
2023/10/14 00:28:54;;;;;;;6.70;3.00;;;;;;;;;;5114995;27;20216;-35
2023/10/14 00:31:31;;;;;;;6.20;3.00;;;;;;;;;;5130143;27;20235;-40
2023/10/14 00:33:58;;;;;;;3.47;2.73;;;;;;;;;;5125814;27;20627;-34
2023/10/14 00:36:31;;;;;;;7.00;3.40;;;;;;;;;;5118750;27;20204;-37
2023/10/14 00:38:58;;;;;;;7.07;3.40;;;;;;;;;;5123524;27;20243;-34
2023/10/14 00:41:26;;;;;;;3.63;2.60;;;;;;;;;;5121928;27;20223;-37
2023/10/14 00:43:54;;;;;;;4.53;3.30;;;;;;;;;;5119776;27;20274;-37
2023/10/14 00:46:23;;;;;;;4.53;2.97;;;;;;;;;;5131612;27;20295;-36
2023/10/14 00:48:58;;;;;;;5.63;3.00;;;;;;;;;;5114689;27;20231;-39
2023/10/14 00:51:26;;;;;;;6.80;3.13;;;;;;;;;;5114678;27;20253;-35
2023/10/14 00:54:01;;;;;;;4.60;3.07;;;;;;;;;;5111086;27;20222;-35
2023/10/14 00:56:28;;;;;;;3.40;3.10;;;;;;;;;;5108291;27;20234;-40
2023/10/14 00:58:59;;;;;;;4.73;3.27;;;;;;;;;;5111073;27;20219;-34
2023/10/14 01:01:31;;;;;;;3.60;3.03;;;;;;;;;;5113664;27;20227;-37
2023/10/14 01:04:18;;;;;;;3.43;3.00;;;;;;;;;;5117240;27;20324;-34
2023/10/14 01:06:56;;;;;;;4.27;2.97;;;;;;;;;;5122042;27;20210;-43
2023/10/14 01:09:31;;;;;;;2.60;2.40;;;;;;;;;;5125316;27;20207;-35
2023/10/14 01:12:03;;;;;;;5.13;3.27;;;;;;;;;;5111024;27;20597;-39
2023/10/14 01:14:33;;;;;;;2.87;2.50;;;;;;;;;;5111360;27;20214;-41
2023/10/14 01:17:01;;;;;;;5.67;3.00;;;;;;;;;;5131318;27;20210;-35
2023/10/14 01:19:30;;;;;;;3.17;2.50;;;;;;;;;;5114909;27;20196;-40
2023/10/14 01:21:57;;;;;;;6.20;3.27;;;;;;;;;;5120970;27;20256;-35
2023/10/14 01:24:30;;;;;;;3.40;2.70;;;;;;;;;;5131999;27;20291;-42
2023/10/14 01:27:01;;;;;;;6.67;3.03;;;;;;;;;;5115335;27;20378;-39
2023/10/14 01:29:31;;;;;;;5.30;2.80;;;;;;;;;;5119255;27;20203;-33
2023/10/14 01:32:23;;;;;;;4.60;3.47;;;;;;;;;;5126688;27;20223;-39
2023/10/14 01:34:58;;;;;;;4.90;3.70;;;;;;;;;;5116088;27;20280;-33
2023/10/14 01:37:27;;;;;;;4.90;3.63;;;;;;;;;;5118856;27;20289;-39
2023/10/14 01:40:14;;;;;;;5.03;3.93;;;;;;;;;;5112598;27;20232;-39
2023/10/14 01:42:41;;;;;;;5.13;3.47;;;;;;;;;;5115059;27;20289;-32
2023/10/14 01:45:09;;;;;;;6.40;3.87;;;;;;;;;;5110817;27;20271;-41
2023/10/14 01:47:43;;;;;;;6.10;3.97;;;;;;;;;;5119069;27;20200;-36
2023/10/14 01:50:12;;;;;;;7.23;3.67;;;;;;;;;;5110732;27;20315;-36
2023/10/14 01:52:41;;;;;;;5.77;4.03;;;;;;;;;;5108752;27;20227;-35
2023/10/14 01:55:10;;;;;;;4.70;3.67;;;;;;;;;;5123328;27;20212;-41
2023/10/14 01:57:37;;;;;;;5.43;4.17;;;;;;;;;;5113954;27;20234;-35
2023/10/14 02:00:23;;;;;;;12.93;3.80;;;;;;;;;;5114183;27;20229;-36
2023/10/14 02:03:00;;;;;;;7.90;3.37;;;;;;;;;;5113840;27;20229;-38
2023/10/14 02:05:29;;;;;;;6.23;4.17;;;;;;;;;;5123694;27;20301;-33
2023/10/14 02:07:56;;;;;;;7.97;4.00;;;;;;;;;;5110671;27;20211;-34
2023/10/14 02:10:27;;;;;;;5.50;3.93;;;;;;;;;;5125265;27;20288;-35
2023/10/14 02:12:56;;;;;;;7.17;4.23;;;;;;;;;;5117473;27;20299;-38
2023/10/14 02:15:24;;;;;;;5.20;3.73;;;;;;;;;;5111630;27;20296;-38
2023/10/14 02:17:51;;;;;;;4.80;4.17;;;;;;;;;;5128139;27;20203;-41
2023/10/14 02:20:27;;;;;;;6.10;4.00;;;;;;;;;;5128643;27;20261;-39
2023/10/14 02:22:57;;;;;;;11.63;4.23;;;;;;;;;;5115092;27;20233;-38
2023/10/14 02:25:27;;;;;;;6.57;4.37;;;;;;;;;;5117049;27;20290;-36
2023/10/14 02:27:55;;;;;;;4.70;3.80;;;;;;;;;;5112181;27;20241;-39
2023/10/14 02:30:22;;;;;;;5.17;3.90;;;;;;;;;;5121758;27;20254;-38
2023/10/14 02:32:49;;;;;;;6.50;4.67;;;;;;;;;;5121401;27;20294;-34
2023/10/14 02:35:16;;;;;;;5.67;4.20;;;;;;;;;;5125993;27;20207;-39
2023/10/14 02:37:44;;;;;;;5.90;4.13;;;;;;;;;;5120515;27;20207;-39
2023/10/14 02:40:16;;;;;;;6.27;4.10;;;;;;;;;;5123011;27;20314;-36
2023/10/14 02:42:45;;;;;;;4.17;3.70;;;;;;;;;;5116155;27;20196;-40
2023/10/14 02:45:13;;;;;;;7.57;4.60;;;;;;;;;;5129467;27;20254;-36
2023/10/14 02:47:41;;;;;;;7.40;4.10;;;;;;;;;;5130725;27;20211;-41
2023/10/14 02:50:11;;;;;;;5.53;4.27;;;;;;;;;;5114144;27;20222;-39
2023/10/14 02:52:39;;;;;;;6.03;4.17;;;;;;;;;;5120448;27;20247;-38
2023/10/14 02:55:21;;;;;;;8.13;4.70;;;;;;;;;;5122798;27;20209;-43
2023/10/14 02:57:50;;;;;;;6.80;4.30;;;;;;;;;;5121524;27;20211;-40
2023/10/14 03:00:22;;;;;;;7.53;4.73;;;;;;;;;;5118776;27;20231;-38
2023/10/14 03:02:54;;;;;;;7.70;4.17;;;;;;;;;;5121370;27;20268;-40
2023/10/14 03:05:42;;;;;;;5.63;4.03;;;;;;;;;;5116683;27;20295;-38
2023/10/14 03:08:10;;;;;;;7.63;4.30;;;;;;;;;;5124903;27;20203;-39
2023/10/14 03:10:42;;;;;;;5.90;3.97;;;;;;;;;;5124296;27;20247;-43
2023/10/14 03:13:11;;;;;;;6.40;4.03;;;;;;;;;;5122576;27;20191;-36
2023/10/14 03:15:39;;;;;;;6.67;3.83;;;;;;;;;;5128178;27;20187;-36
2023/10/14 03:18:07;;;;;;;5.30;4.10;;;;;;;;;;5128262;27;20210;-34
2023/10/14 03:20:35;;;;;;;6.33;4.07;;;;;;;;;;5121292;27;20247;-39
2023/10/14 03:23:03;;;;;;;5.70;4.40;;;;;;;;;;5109128;27;20200;-39
2023/10/14 03:25:35;;;;;;;5.13;4.07;;;;;;;;;;5123730;27;20208;-35
2023/10/14 03:28:08;;;;;;;7.70;4.17;;;;;;;;;;5111918;27;20267;-40
2023/10/14 03:30:38;;;;;;;6.23;4.13;;;;;;;;;;5109259;27;20235;-37
2023/10/14 03:33:10;;;;;;;6.77;4.30;;;;;;;;;;5119712;27;20215;-35
2023/10/14 03:35:37;;;;;;;6.27;4.50;;;;;;;;;;5112168;28;20200;-40
2023/10/14 03:38:14;;;;;;;8.63;4.20;;;;;;;;;;5122116;27;20212;-37
2023/10/14 03:43:23;;;;;;;5.10;4.10;;;;;;;;;;5119453;28;20207;-37
2023/10/14 03:45:56;;;;;;;9.00;4.50;;;;;;;;;;5110084;28;20328;-38
2023/10/14 03:48:28;;;;;;;6.20;4.47;;;;;;;;;;5120405;28;20196;-39
2023/10/14 03:51:02;;;;;;;10.07;5.10;;;;;;;;;;5120757;28;20259;-42
2023/10/14 03:53:31;;;;;;;5.53;4.50;;;;;;;;;;5114516;28;20269;-38
2023/10/14 03:56:01;;;;;;;7.93;4.50;;;;;;;;;;5108125;28;20200;-41
2023/10/14 03:58:30;;;;;;;7.23;3.90;;;;;;;;;;5108703;28;20253;-33
2023/10/14 04:00:59;;;;;;;9.73;4.30;;;;;;;;;;5118265;27;20232;-34
2023/10/14 04:03:39;;;;;;;6.37;4.10;;;;;;;;;;5118224;27;20200;-41
2023/10/14 04:06:08;;;;;;;8.60;4.03;;;;;;;;;;5111733;28;20210;-37
2023/10/14 04:08:40;;;;;;;9.20;3.87;;;;;;;;;;5118901;28;20207;-38
2023/10/14 04:11:12;;;;;;;7.93;3.87;;;;;;;;;;5117339;28;20228;-35
2023/10/14 04:13:42;;;;;;;5.93;4.47;;;;;;;;;;5115361;28;20277;-37
2023/10/14 04:16:12;;;;;;;6.83;4.53;;;;;;;;;;5116583;28;20202;-34
2023/10/14 04:18:43;;;;;;;7.33;4.47;;;;;;;;;;5115237;28;20203;-38
2023/10/14 04:21:19;;;;;;;6.17;4.43;;;;;;;;;;5112273;28;20228;-37
2023/10/14 04:24:09;;;;;;;8.27;4.93;;;;;;;;;;5122248;28;20203;-40
2023/10/14 04:26:36;;;;;;;7.53;4.50;;;;;;;;;;5109056;27;20256;-35
2023/10/14 04:29:12;;;;;;;7.20;4.30;;;;;;;;;;5120456;28;20205;-35
2023/10/14 04:31:41;;;;;;;6.53;3.20;;;;;;;;;;5119426;27;20231;-35
2023/10/14 04:34:10;;;;;;;5.57;4.40;;;;;;;;;;5111190;27;20301;-39
2023/10/14 04:36:53;;;;;;;5.17;3.90;;;;;;;;;;5119518;27;20240;-39
2023/10/14 04:39:27;;;;;;;10.03;4.40;;;;;;;;;;5127295;28;20201;-37
2023/10/14 04:42:11;;;;;;;11.10;4.27;;;;;;;;;;5121546;28;20199;-41
2023/10/14 04:44:45;;;;;;;5.43;4.03;;;;;;;;;;5120876;28;20207;-38
2023/10/14 04:47:19;;;;;;;11.60;4.53;;;;;;;;;;5123846;28;20302;-37
2023/10/14 04:49:51;;;;;;;12.63;4.77;;;;;;;;;;5116335;27;20229;-42
2023/10/14 04:52:19;;;;;;;8.00;4.70;;;;;;;;;;5119944;27;20224;-37
2023/10/14 04:54:53;;;;;;;9.17;4.27;;;;;;;;;;5115540;27;20200;-39
2023/10/14 04:57:21;;;;;;;9.60;5.07;;;;;;;;;;5110276;27;20209;-37
2023/10/14 04:59:53;;;;;;;6.50;4.13;;;;;;;;;;5119700;27;20230;-36
2023/10/14 05:02:22;;;;;;;7.03;4.70;;;;;;;;;;5127919;27;20202;-41
2023/10/14 05:04:50;;;;;;;7.07;4.53;;;;;;;;;;5131372;27;20322;-38
2023/10/14 05:07:18;;;;;;;5.00;4.00;;;;;;;;;;5117305;27;20200;-35
2023/10/14 05:09:56;;;;;;;9.17;4.07;;;;;;;;;;5127062;27;20227;-37
2023/10/14 05:12:25;;;;;;;8.70;4.00;;;;;;;;;;5124158;27;20238;-38
2023/10/14 05:14:55;;;;;;;6.37;4.27;;;;;;;;;;5123382;27;20247;-39
2023/10/14 05:17:27;;;;;;;5.77;4.20;;;;;;;;;;5128514;27;20235;-39
2023/10/14 05:20:15;;;;;;;6.60;4.43;;;;;;;;;;5123114;27;20238;-33
2023/10/14 05:22:47;;;;;;;9.67;4.40;;;;;;;;;;5127973;27;20235;-37
2023/10/14 05:25:16;;;;;;;8.20;4.13;;;;;;;;;;5115789;27;20208;-34
2023/10/14 05:27:55;;;;;;;10.17;4.13;;;;;;;;;;5107282;27;20622;-37
2023/10/14 05:30:22;;;;;;;8.87;3.83;;;;;;;;;;5111485;27;20221;-39
2023/10/14 05:32:51;;;;;;;8.07;4.30;;;;;;;;;;5114235;27;20220;-36
2023/10/14 05:35:22;;;;;;;6.27;3.97;;;;;;;;;;5129744;27;20224;-40
2023/10/14 05:37:50;;;;;;;7.37;4.20;;;;;;;;;;5112518;27;20211;-36
2023/10/14 05:40:21;;;;;;;7.90;4.00;;;;;;;;;;5115650;27;20224;-39
2023/10/14 05:42:48;;;;;;;4.20;3.40;;;;;;;;;;5118085;27;20264;-38
2023/10/14 05:45:17;;;;;;;4.87;4.00;;;;;;;;;;5124102;27;20208;-39
2023/10/14 05:47:46;;;;;;;5.87;3.90;;;;;;;;;;5110385;28;20200;-38
2023/10/14 05:50:17;;;;;;;7.63;4.73;;;;;;;;;;5118198;27;21600;-37
2023/10/14 05:52:46;;;;;;;5.47;3.90;;;;;;;;;;5119329;27;20224;-38
2023/10/14 05:55:19;;;;;;;5.50;4.47;;;;;;;;;;5119583;27;20203;-37
2023/10/14 05:57:47;;;;;;;5.10;4.03;;;;;;;;;;5111366;27;20210;-42
2023/10/14 06:00:21;;;;;;;7.40;4.53;;;;;;;;;;5118150;27;20227;-38
2023/10/14 06:02:52;;;;;;;4.20;3.80;;;;;;;;;;5120607;27;20199;-37
2023/10/14 06:05:22;;;;;;;7.60;4.13;;;;;;;;;;5111702;27;20204;-35
2023/10/14 06:07:50;;;;;;;4.60;3.60;;;;;;;;;;5121692;27;20211;-41
2023/10/14 06:10:20;;;;;;;5.10;3.80;;;;;;;;;;5123331;27;20315;-39
2023/10/14 06:12:51;;;;;;;8.70;4.50;;;;;;;;;;5116614;27;20219;-39
2023/10/14 06:15:19;;;;;;;7.10;4.10;;;;;;;;;;5128097;27;20258;-38
2023/10/14 06:17:47;;;;;;;4.93;4.10;;;;;;;;;;5121091;27;20282;-35
2023/10/14 06:20:16;;;;;;;8.83;4.30;;;;;;;;;;5129029;27;20311;-42
2023/10/14 06:22:45;;;;;;;6.87;3.93;;;;;;;;;;5129331;27;20195;-38
2023/10/14 06:25:15;;;;;;;6.63;4.17;;;;;;;;;;5117433;27;20201;-37
2023/10/14 06:27:45;;;;;;;5.53;4.20;;;;;;;;;;5114809;27;20208;-38
2023/10/14 06:30:20;;;;;;;6.77;4.33;;;;;;;;;;5124465;27;20228;-35
2023/10/14 06:32:48;;;;;;;6.07;3.93;;;;;;;;;;5131460;27;20210;-34
2023/10/14 06:35:22;;;;;;;4.83;4.07;;;;;;;;;;5124373;27;20212;-36
2023/10/14 06:37:53;;;;;;;7.70;4.07;;;;;;;;;;5121987;27;20204;-37
2023/10/14 06:40:21;;;;;;;7.27;3.97;;;;;;;;;;5126864;27;20294;-39
2023/10/14 06:42:50;;;;;;;11.27;4.10;;;;;;;;;;5128243;27;20199;-38
2023/10/14 06:45:21;;;;;;;8.13;4.10;;;;;;;;;;5126515;27;20294;-38
2023/10/14 06:47:50;;;;;;;6.47;4.00;;;;;;;;;;5121966;27;20198;-34
2023/10/14 06:50:20;;;;;;;7.53;4.00;;;;;;;;;;5117728;27;20225;-37
2023/10/14 06:52:48;;;;;;;7.77;5.00;;;;;;;;;;5120211;27;20223;-39
2023/10/14 06:55:21;;;;;;;6.50;4.10;;;;;;;;;;5120651;27;20214;-37
2023/10/14 06:57:51;;;;;;;7.10;4.33;;;;;;;;;;5120223;27;20203;-39
2023/10/14 07:00:25;;;;;;;12.67;4.60;;;;;;;;;;5119524;27;20227;-38
2023/10/14 07:02:53;;;;;;;9.87;4.47;;;;;;;;;;5119847;27;20227;-41
2023/10/14 07:05:23;;;;;;;9.27;4.03;;;;;;;;;;5117824;27;20208;-41
2023/10/14 07:07:50;;;;;;;3.90;3.47;;;;;;;;;;5121015;27;20199;-37
2023/10/14 07:10:27;;;;;;;4.27;3.87;;;;;;;;;;5125292;27;20306;-43
2023/10/14 07:12:54;;;;;;;6.83;4.77;;;;;;;;;;5119355;27;20220;-38
2023/10/14 07:15:22;;;;;;;8.67;4.00;;;;;;;;;;5126195;27;20268;-41
2023/10/14 07:17:49;;;;;;;4.40;3.70;;;;;;;;;;5125433;27;20197;-36
2023/10/14 07:20:16;;;;;;;5.70;3.90;;;;;;;;;;5129496;27;20228;-34
2023/10/14 07:22:43;;;;;;;6.17;4.10;;;;;;;;;;5124054;27;20195;-38
2023/10/14 07:25:14;;;;;;;7.53;4.20;;;;;;;;;;5123420;27;20213;-41
2023/10/14 07:27:43;;;;;;;8.63;4.37;;;;;;;;;;5126329;27;20203;-38
2023/10/14 07:30:14;;;;;;;8.93;4.23;;;;;;;;;;5118089;27;20228;-38
2023/10/14 07:32:43;;;;;;;8.90;3.93;;;;;;;;;;5133752;27;20231;-34
2023/10/14 07:35:13;;;;;;;8.97;4.43;;;;;;;;;;5123137;27;20204;-39
2023/10/14 07:37:43;;;;;;;6.77;3.97;;;;;;;;;;5132861;27;20195;-36
2023/10/14 07:40:22;;;;;;;5.67;3.53;;;;;;;;;;5116798;28;20231;-36
2023/10/14 07:42:52;;;;;;;6.47;4.37;;;;;;;;;;5121153;28;20201;-37
2023/10/14 07:45:19;;;;;;;8.63;3.73;;;;;;;;;;5121634;28;20205;-37
2023/10/14 07:47:46;;;;;;;6.57;3.93;;;;;;;;;;5126047;27;20199;-39
2023/10/14 07:50:14;;;;;;;4.93;3.73;;;;;;;;;;5129973;27;20229;-39
2023/10/14 07:52:41;;;;;;;5.27;3.53;;;;;;;;;;5122086;28;20220;-40
2023/10/14 07:55:10;;;;;;;8.33;3.83;;;;;;;;;;5124216;28;20201;-38
2023/10/14 07:57:40;;;;;;;5.50;3.40;;;;;;;;;;5124225;28;20207;-35
2023/10/14 08:00:12;;;;;;;7.53;3.60;;;;;;;;;;5124954;28;20281;-37
2023/10/14 08:02:39;;;;;;;7.77;3.57;;;;;;;;;;5126562;28;20196;-33
2023/10/14 08:05:07;;;;;;;7.87;3.10;;;;;;;;;;5130568;28;20208;-37
2023/10/14 08:07:40;;;;;;;4.60;2.57;;;;;;;;;;5112553;28;20197;-39
2023/10/14 08:10:17;;;;;;;5.13;3.47;;;;;;;;;;5121417;28;20289;-37
2023/10/14 08:12:44;;;;;;;4.07;3.40;;;;;;;;;;5123610;28;20220;-36
2023/10/14 08:15:14;;;;;;;3.77;3.27;;;;;;;;;;5128657;28;20300;-40
2023/10/14 08:17:42;;;;;;;7.57;3.80;;;;;;;;;;5129679;27;20213;-39
2023/10/14 08:20:13;;;;;;;5.70;3.60;;;;;;;;;;5129095;27;20252;-37
2023/10/14 08:22:41;;;;;;;6.37;3.67;;;;;;;;;;5127413;28;20197;-42
2023/10/14 08:25:08;;;;;;;5.77;3.17;;;;;;;;;;5123569;27;20305;-36
2023/10/14 08:27:38;;;;;;;6.43;3.40;;;;;;;;;;5117574;27;20207;-38
2023/10/14 08:30:10;;;;;;;4.20;3.10;;;;;;;;;;5128640;27;20225;-39
2023/10/14 08:32:39;;;;;;;5.83;3.20;;;;;;;;;;5121885;27;20216;-40
2023/10/14 08:35:14;;;;;;;7.70;3.27;;;;;;;;;;5131563;27;20587;-40
2023/10/14 08:37:43;;;;;;;5.70;3.70;;;;;;;;;;5122243;27;20258;-38
2023/10/14 08:40:15;;;;;;;5.70;3.33;;;;;;;;;;5114345;27;20265;-35
2023/10/14 08:42:45;;;;;;;4.93;3.87;;;;;;;;;;5119943;27;20198;-34
2023/10/14 08:45:13;;;;;;;4.33;3.30;;;;;;;;;;5122132;27;20212;-38
2023/10/14 08:47:42;;;;;;;6.10;3.57;;;;;;;;;;5123045;27;20200;-34
2023/10/14 08:50:12;;;;;;;6.70;3.57;;;;;;;;;;5130452;27;20248;-41
2023/10/14 08:52:41;;;;;;;6.60;3.33;;;;;;;;;;5116900;27;20232;-41
2023/10/14 08:55:12;;;;;;;3.73;3.10;;;;;;;;;;5121612;27;20199;-33
2023/10/14 08:57:40;;;;;;;4.20;3.20;;;;;;;;;;5121266;27;20201;-36
2023/10/14 09:00:12;;;;;;;5.90;2.97;;;;;;;;;;5118382;27;20231;-35
2023/10/14 09:02:40;;;;;;;3.93;2.63;;;;;;;;;;5124791;27;20291;-39
2023/10/14 09:05:11;;;;;;;3.57;2.50;;;;;;;;;;5130300;27;20203;-40
2023/10/14 09:07:39;;;;;;;4.70;3.07;;;;;;;;;;5123237;27;20202;-38
2023/10/14 09:10:07;;;;;;;4.50;2.70;;;;;;;;;;5124936;27;20231;-35
2023/10/14 09:12:35;;;;;;;4.33;2.73;;;;;;;;;;5121048;27;20216;-33
2023/10/14 09:15:02;;;;;;;4.27;2.83;;;;;;;;;;5123693;27;20209;-38
2023/10/14 09:17:30;;;;;;;3.80;2.97;;;;;;;;;;5130117;27;20200;-41
2023/10/14 09:19:58;;;;;;;3.37;2.50;;;;;;;;;;5123179;27;20235;-41
2023/10/14 09:22:27;;;;;;;3.33;2.57;;;;;;;;;;5125809;27;20212;-34
2023/10/14 09:24:55;;;;;;;4.67;2.70;;;;;;;;;;5116958;27;20357;-38
2023/10/14 09:27:23;;;;;;;6.87;2.90;;;;;;;;;;5117690;27;20201;-34
2023/10/14 09:29:50;;;;;;;4.67;2.37;;;;;;;;;;5124183;27;20225;-40
2023/10/14 09:32:17;;;;;;;4.80;2.60;;;;;;;;;;5126330;27;20211;-38
2023/10/14 09:34:44;;;;;;;3.77;2.63;;;;;;;;;;5127443;27;20348;-35
2023/10/14 09:37:12;;;;;;;3.97;2.37;;;;;;;;;;5110444;27;20198;-40
2023/10/14 09:39:42;;;;;;;2.93;2.63;;;;;;;;;;5127930;27;20255;-38
2023/10/14 09:42:15;;;;;;;5.10;2.57;;;;;;;;;;5123292;27;20202;-35
2023/10/14 09:44:53;;;;;;;2.00;1.40;;;;;;;;;;5113901;27;20215;-35
2023/10/14 09:47:22;;;;;;;1.53;1.23;;;;;;;;;;5128320;27;20205;-42
2023/10/14 09:49:52;;;;;;;1.33;1.10;;;;;;;;;;5125450;27;20869;-38
2023/10/14 09:52:21;;;;;;;1.40;0.60;;;;;;;;;;5123699;27;20299;-34
2023/10/14 09:54:50;;;;;;;1.10;0.80;;;;;;;;;;5113804;27;20294;-41
2023/10/14 09:57:19;;;;;;;0.53;0.53;;;;;;;;;;5120870;27;20209;-38
2023/10/14 10:00:01;;;;;;;0.90;0.40;;;;;;;;;;5130079;27;20279;-40
2023/10/14 10:02:28;;;;;;;0.40;0.40;;;;;;;;;;5120441;27;20205;-36
2023/10/14 10:04:55;;;;;;;0.70;0.70;;;;;;;;;;5118484;27;20211;-33
2023/10/14 10:07:40;;;;;;;0.87;0.70;;;;;;;;;;5118588;27;20400;-35
2023/10/14 10:10:18;;;;;;;2.00;0.70;;;;;;;;;;5122605;27;20224;-34
2023/10/14 10:12:52;;;;;;;0.60;0.60;;;;;;;;;;5123073;27;20209;-37
2023/10/14 10:15:20;;;;;;;1.00;0.70;;;;;;;;;;5129526;27;20211;-36
2023/10/14 10:17:55;;;;;;;0.70;0.70;;;;;;;;;;5127770;27;20207;-35
2023/10/14 10:20:28;;;;;;;1.13;0.77;;;;;;;;;;5126058;27;20220;-40
2023/10/14 10:22:58;;;;;;;1.90;0.93;;;;;;;;;;5122172;27;20211;-38
2023/10/14 10:25:47;;;;;;;1.90;0.90;;;;;;;;;;5125390;27;20211;-41
2023/10/14 10:28:29;;;;;;;0.90;0.70;;;;;;;;;;5115384;27;20231;-39
2023/10/14 10:31:09;;;;;;;2.47;0.90;;;;;;;;;;5105653;27;20223;-38
2023/10/14 10:33:59;;;;;;;2.73;0.87;;;;;;;;;;5127651;27;20220;-35
2023/10/14 10:36:28;;;;;;;1.00;0.70;;;;;;;;;;5113481;27;20258;-36
2023/10/14 10:39:06;;;;;;;0.73;0.60;;;;;;;;;;5130342;27;20203;-42
2023/10/14 10:41:37;;;;;;;1.17;1.00;;;;;;;;;;5124731;27;20231;-36
2023/10/14 10:44:06;;;;;;;2.00;0.90;;;;;;;;;;5118692;27;20195;-40
2023/10/14 10:46:38;;;;;;;0.60;0.60;;;;;;;;;;5129669;27;20202;-36
2023/10/14 10:49:07;;;;;;;1.47;0.67;;;;;;;;;;5130253;27;20207;-39
2023/10/14 10:51:34;;;;;;;0.77;0.77;;;;;;;;;;5124774;27;20298;-35
2023/10/14 10:54:02;;;;;;;0.67;0.67;;;;;;;;;;5119313;27;20215;-38
2023/10/14 10:56:33;;;;;;;1.17;0.70;;;;;;;;;;5125037;27;20252;-36
2023/10/14 10:59:04;;;;;;;1.13;0.97;;;;;;;;;;5120437;27;20203;-37
2023/10/14 11:01:32;;;;;;;1.00;0.90;;;;;;;;;;5122526;27;20234;-35
2023/10/14 11:04:03;;;;;;;0.90;0.90;;;;;;;;;;5130375;27;20195;-38
2023/10/14 11:06:31;;;;;;;1.80;1.00;;;;;;;;;;5118581;27;20235;-34
2023/10/14 11:08:59;;;;;;;2.03;0.80;;;;;;;;;;5124310;27;20253;-35
2023/10/14 11:11:31;;;;;;;1.60;1.00;;;;;;;;;;5118126;27;20227;-42
2023/10/14 11:14:00;;;;;;;1.80;0.80;;;;;;;;;;5114896;27;20231;-35
2023/10/14 11:16:28;;;;;;;1.17;0.90;;;;;;;;;;5127881;27;20639;-40
2023/10/14 11:18:56;;;;;;;1.73;1.20;;;;;;;;;;5129991;27;20199;-34
2023/10/14 11:21:27;;;;;;;1.63;1.00;;;;;;;;;;5120987;27;20223;-39
2023/10/14 11:24:01;;;;;;;1.77;1.27;;;;;;;;;;5126207;27;20200;-32
2023/10/14 11:26:37;;;;;;;2.20;1.10;;;;;;;;;;5120287;27;20203;-33
2023/10/14 11:29:06;;;;;;;2.80;1.00;;;;;;;;;;5123855;27;20230;-32
2023/10/14 11:31:33;;;;;;;2.33;0.97;;;;;;;;;;5124944;27;20229;-34
2023/10/14 11:34:01;;;;;;;2.20;1.30;;;;;;;;;;5126293;27;20218;-36
2023/10/14 11:36:30;;;;;;;0.70;0.70;;;;;;;;;;5119347;27;20200;-42
2023/10/14 11:38:59;;;;;;;0.97;0.80;;;;;;;;;;5127565;28;20290;-35
2023/10/14 11:41:27;;;;;;;1.90;0.70;;;;;;;;;;5128584;28;20241;-41
2023/10/14 11:43:54;;;;;;;0.80;0.80;;;;;;;;;;5114210;27;20231;-39
2023/10/14 11:46:22;;;;;;;0.90;0.90;;;;;;;;;;5119212;27;20204;-33
2023/10/14 11:48:49;;;;;;;1.87;0.80;;;;;;;;;;5115832;28;20330;-37
2023/10/14 11:51:23;;;;;;;2.67;0.97;;;;;;;;;;5117098;28;20251;-41
2023/10/14 11:53:52;;;;;;;0.83;0.83;;;;;;;;;;5118291;28;20224;-34
2023/10/14 11:56:20;;;;;;;1.23;0.77;;;;;;;;;;5122999;27;20210;-39
2023/10/14 11:58:49;;;;;;;1.50;0.70;;;;;;;;;;5120510;27;20238;-36
2023/10/14 12:01:16;;;;;;;1.07;0.80;;;;;;;;;;5129311;27;20237;-37
2023/10/14 12:03:44;;;;;;;1.80;0.90;;;;;;;;;;5133490;27;20275;-41
2023/10/14 12:06:13;;;;;;;1.30;0.87;;;;;;;;;;5128822;27;20203;-40
2023/10/14 12:08:40;;;;;;;1.47;0.90;;;;;;;;;;5132022;27;20279;-37
2023/10/14 12:11:13;;;;;;;0.70;0.70;;;;;;;;;;5121569;27;20223;-36
2023/10/14 12:13:40;;;;;;;0.90;0.80;;;;;;;;;;5117060;27;20231;-33
2023/10/14 12:16:08;;;;;;;0.70;0.70;;;;;;;;;;5134009;27;20246;-39
2023/10/14 12:18:46;;;;;;;1.53;1.00;;;;;;;;;;5124597;27;20199;-38
2023/10/14 12:21:18;;;;;;;1.40;1.30;;;;;;;;;;5119124;27;20215;-39
2023/10/14 12:23:46;;;;;;;0.90;0.90;;;;;;;;;;5126699;27;20278;-38
2023/10/14 12:26:14;;;;;;;1.10;1.00;;;;;;;;;;5129932;27;20199;-38
2023/10/14 12:28:41;;;;;;;0.87;0.87;;;;;;;;;;5118004;27;20216;-41
2023/10/14 12:31:12;;;;;;;1.30;0.90;;;;;;;;;;5121845;27;20228;-43
2023/10/14 12:33:41;;;;;;;1.73;1.63;;;;;;;;;;5131929;27;20214;-40
2023/10/14 12:36:10;;;;;;;1.13;0.63;;;;;;;;;;5117950;27;20211;-36
2023/10/14 12:38:47;;;;;;;1.53;0.90;;;;;;;;;;5127697;27;20350;-41
2023/10/14 12:41:21;;;;;;;1.07;0.70;;;;;;;;;;5122169;27;20259;-42
2023/10/14 12:43:51;;;;;;;1.23;0.63;;;;;;;;;;5125599;27;20207;-42
2023/10/14 12:46:22;;;;;;;1.83;0.70;;;;;;;;;;5132650;27;20218;-38
2023/10/14 12:48:50;;;;;;;2.47;1.00;;;;;;;;;;5123467;27;20241;-33
2023/10/14 12:51:21;;;;;;;8.57;0.83;;;;;;;;;;5123142;27;20259;-40
2023/10/14 12:53:49;;;;;;;1.97;0.90;;;;;;;;;;5120288;27;20235;-35
2023/10/14 12:56:20;;;;;;;0.87;0.70;;;;;;;;;;5124109;27;20221;-38
2023/10/14 12:58:48;;;;;;;1.00;0.57;;;;;;;;;;5115449;27;20200;-36
2023/10/14 13:01:17;;;;;;;2.50;0.90;;;;;;;;;;5123256;27;20228;-40
2023/10/14 13:03:46;;;;;;;0.60;0.60;;;;;;;;;;5112471;27;20223;-35
2023/10/14 13:06:13;;;;;;;0.80;0.80;;;;;;;;;;5124207;27;20214;-40
2023/10/14 13:08:40;;;;;;;0.77;0.77;;;;;;;;;;5123422;27;20195;-40
2023/10/14 13:11:08;;;;;;;1.00;0.57;;;;;;;;;;5126309;27;20223;-38
2023/10/14 13:13:36;;;;;;;0.67;0.67;;;;;;;;;;5117745;27;20204;-41
2023/10/14 13:16:03;;;;;;;2.60;0.83;;;;;;;;;;5113558;27;20230;-36
2023/10/14 13:18:30;;;;;;;1.73;0.87;;;;;;;;;;5120760;27;20214;-37
2023/10/14 13:20:59;;;;;;;2.23;0.80;;;;;;;;;;5122985;27;20251;-39
2023/10/14 13:23:27;;;;;;;0.97;0.73;;;;;;;;;;5130659;27;20199;-37
2023/10/14 13:25:57;;;;;;;2.77;0.87;;;;;;;;;;5116979;27;20282;-38
2023/10/14 13:28:24;;;;;;;0.97;0.93;;;;;;;;;;5119599;27;20332;-38
2023/10/14 13:30:54;;;;;;;1.23;1.00;;;;;;;;;;5112059;28;20230;-37
2023/10/14 13:33:24;;;;;;;1.20;0.60;;;;;;;;;;5119942;27;20232;-39
2023/10/14 13:35:55;;;;;;;1.40;0.90;;;;;;;;;;5114861;27;20254;-36
2023/10/14 13:38:22;;;;;;;0.67;0.67;;;;;;;;;;5115068;27;20200;-39
2023/10/14 13:40:50;;;;;;;0.60;0.53;;;;;;;;;;5122890;27;20218;-40
2023/10/14 13:43:18;;;;;;;0.83;0.80;;;;;;;;;;5123100;27;20208;-33
2023/10/14 13:45:45;;;;;;;0.60;0.60;;;;;;;;;;5131276;27;20210;-38
2023/10/14 13:48:14;;;;;;;0.60;0.60;;;;;;;;;;5123776;27;20203;-38
2023/10/14 13:50:42;;;;;;;1.40;0.90;;;;;;;;;;5113252;27;20223;-40
2023/10/14 13:53:17;;;;;;;2.43;0.60;;;;;;;;;;5120960;27;20231;-42
2023/10/14 13:55:44;;;;;;;0.80;0.60;;;;;;;;;;5121128;27;20265;-37
2023/10/14 13:58:12;;;;;;;1.30;0.80;;;;;;;;;;5121893;27;20207;-35
2023/10/14 14:00:40;;;;;;;2.40;0.67;;;;;;;;;;5113092;27;20230;-38
2023/10/14 14:03:09;;;;;;;1.97;0.70;;;;;;;;;;5130969;27;20286;-37
2023/10/14 14:05:38;;;;;;;2.20;0.77;;;;;;;;;;5121171;27;20197;-39
2023/10/14 14:08:08;;;;;;;1.10;0.70;;;;;;;;;;5112051;27;20206;-37
2023/10/14 14:10:35;;;;;;;0.40;0.40;;;;;;;;;;5119008;27;20226;-34
2023/10/14 14:13:03;;;;;;;0.43;0.43;;;;;;;;;;5113124;27;20227;-37
2023/10/14 14:15:31;;;;;;;2.57;0.53;;;;;;;;;;5111256;27;20220;-40
2023/10/14 14:17:58;;;;;;;0.40;0.40;;;;;;;;;;5127738;27;20222;-37
2023/10/14 14:20:26;;;;;;;0.60;0.57;;;;;;;;;;5119576;27;20223;-38
2023/10/14 14:22:56;;;;;;;1.07;0.60;;;;;;;;;;5117712;27;20248;-41
2023/10/14 14:25:24;;;;;;;0.60;0.60;;;;;;;;;;5118918;27;20290;-41
2023/10/14 14:27:52;;;;;;;1.23;0.63;;;;;;;;;;5119133;27;20228;-40
2023/10/14 14:30:19;;;;;;;0.60;0.60;;;;;;;;;;5115671;27;20227;-40
2023/10/14 14:32:46;;;;;;;0.40;0.40;;;;;;;;;;5117557;27;20203;-38
2023/10/14 14:35:14;;;;;;;1.50;0.50;;;;;;;;;;5113589;27;20219;-37
2023/10/14 14:37:43;;;;;;;0.83;0.60;;;;;;;;;;5111091;27;20203;-38
2023/10/14 14:40:13;;;;;;;2.27;0.73;;;;;;;;;;5110634;28;20238;-38
2023/10/14 14:42:44;;;;;;;0.67;0.43;;;;;;;;;;5112565;27;20207;-36
2023/10/14 14:45:12;;;;;;;2.43;0.70;;;;;;;;;;5110012;27;20199;-35
2023/10/14 14:47:39;;;;;;;1.63;0.57;;;;;;;;;;5127390;27;20217;-37
2023/10/14 14:50:07;;;;;;;1.60;0.70;;;;;;;;;;5130930;27;20340;-34
2023/10/14 14:52:34;;;;;;;1.20;0.77;;;;;;;;;;5121400;27;20210;-34
2023/10/14 14:55:03;;;;;;;0.63;0.63;;;;;;;;;;5109672;28;20224;-40
2023/10/14 14:57:32;;;;;;;1.20;0.50;;;;;;;;;;5113733;27;20210;-35
2023/10/14 14:59:59;;;;;;;0.70;0.60;;;;;;;;;;5111960;27;20280;-39
2023/10/14 15:02:43;;;;;;;2.17;0.80;;;;;;;;;;5114151;27;20199;-37
2023/10/14 15:05:14;;;;;;;2.50;1.00;;;;;;;;;;5122917;27;20203;-37